sensor_id;sensor_type;location;lat;lon;timestamp;pressure;altitude;pressure_sealevel;temperature;humidity
68889;BME280;55930;47.412;8.790;2022-11-20T00:02:21;94206.38;;;4.29;100.00
68889;BME280;55930;47.412;8.790;2022-11-20T00:05:42;94207.34;;;4.22;100.00
68889;BME280;55930;47.412;8.790;2022-11-20T00:09:02;94205.97;;;4.17;100.00
68889;BME280;55930;47.412;8.790;2022-11-20T00:12:23;94206.38;;;4.29;100.00
68889;BME280;55930;47.412;8.790;2022-11-20T00:15:43;94214.09;;;4.32;100.00
68889;BME280;55930;47.412;8.790;2022-11-20T00:19:04;94210.56;;;4.26;100.00
68889;BME280;55930;47.412;8.790;2022-11-20T00:22:24;94219.91;;;4.27;100.00
68889;BME280;55930;47.412;8.790;2022-11-20T00:25:47;94219.50;;;4.29;100.00
68889;BME280;55930;47.412;8.790;2022-11-20T00:29:11;94226.81;;;4.34;100.00
68889;BME280;55930;47.412;8.790;2022-11-20T00:32:32;94220.16;;;4.20;100.00
68889;BME280;55930;47.412;8.790;2022-11-20T00:35:52;94213.31;;;4.22;100.00
68889;BME280;55930;47.412;8.790;2022-11-20T00:39:12;94226.88;;;4.43;100.00
68889;BME280;55930;47.412;8.790;2022-11-20T00:42:33;94222.19;;;4.38;100.00
68889;BME280;55930;47.412;8.790;2022-11-20T00:46:03;94225.47;;;4.29;100.00
68889;BME280;55930;47.412;8.790;2022-11-20T00:49:24;94226.94;;;4.30;100.00
68889;BME280;55930;47.412;8.790;2022-11-20T00:52:44;94224.09;;;4.24;100.00
68889;BME280;55930;47.412;8.790;2022-11-20T00:56:07;94230.66;;;4.20;100.00
68889;BME280;55930;47.412;8.790;2022-11-20T00:59:28;94219.84;;;4.18;100.00
68889;BME280;55930;47.412;8.790;2022-11-20T01:02:48;94229.34;;;4.24;100.00
68889;BME280;55930;47.412;8.790;2022-11-20T01:06:21;94233.53;;;4.35;100.00
68889;BME280;55930;47.412;8.790;2022-11-20T01:09:42;94232.38;;;4.36;100.00
68889;BME280;55930;47.412;8.790;2022-11-20T01:13:05;94224.84;;;4.25;100.00
68889;BME280;55930;47.412;8.790;2022-11-20T01:16:48;94226.38;;;4.13;100.00
68889;BME280;55930;47.412;8.790;2022-11-20T01:20:12;94228.34;;;4.09;100.00
68889;BME280;55930;47.412;8.790;2022-11-20T01:23:35;94222.78;;;4.07;100.00
68889;BME280;55930;47.412;8.790;2022-11-20T01:26:58;94235.22;;;3.94;100.00
68889;BME280;55930;47.412;8.790;2022-11-20T01:30:23;94234.09;;;3.82;100.00
68889;BME280;55930;47.412;8.790;2022-11-20T01:33:44;94233.16;;;3.64;100.00
68889;BME280;55930;47.412;8.790;2022-11-20T01:37:05;94233.66;;;3.84;100.00
68889;BME280;55930;47.412;8.790;2022-11-20T01:40:25;94233.56;;;3.88;100.00
68889;BME280;55930;47.412;8.790;2022-11-20T01:43:46;94242.78;;;3.79;100.00
68889;BME280;55930;47.412;8.790;2022-11-20T01:47:07;94247.00;;;3.90;100.00
68889;BME280;55930;47.412;8.790;2022-11-20T01:50:29;94249.28;;;3.88;100.00
68889;BME280;55930;47.412;8.790;2022-11-20T01:53:52;94251.38;;;3.93;100.00
68889;BME280;55930;47.412;8.790;2022-11-20T01:57:13;94242.91;;;3.89;100.00
68889;BME280;55930;47.412;8.790;2022-11-20T02:00:38;94248.25;;;3.85;100.00
68889;BME280;55930;47.412;8.790;2022-11-20T02:04:01;94251.69;;;3.95;100.00
68889;BME280;55930;47.412;8.790;2022-11-20T02:07:23;94248.16;;;3.89;100.00
68889;BME280;55930;47.412;8.790;2022-11-20T02:10:43;94245.84;;;3.91;100.00
68889;BME280;55930;47.412;8.790;2022-11-20T02:14:04;94249.16;;;3.91;100.00
68889;BME280;55930;47.412;8.790;2022-11-20T02:17:25;94245.28;;;3.96;100.00
68889;BME280;55930;47.412;8.790;2022-11-20T02:20:48;94244.56;;;3.95;100.00
68889;BME280;55930;47.412;8.790;2022-11-20T02:24:12;94249.41;;;3.84;100.00
68889;BME280;55930;47.412;8.790;2022-11-20T02:27:36;94250.88;;;3.85;100.00
68889;BME280;55930;47.412;8.790;2022-11-20T02:30:57;94254.34;;;3.82;100.00
68889;BME280;55930;47.412;8.790;2022-11-20T02:34:17;94253.38;;;3.89;100.00
68889;BME280;55930;47.412;8.790;2022-11-20T02:37:39;94253.50;;;3.98;100.00
68889;BME280;55930;47.412;8.790;2022-11-20T02:41:00;94255.97;;;4.01;100.00
68889;BME280;55930;47.412;8.790;2022-11-20T02:44:23;94256.63;;;4.05;100.00
68889;BME280;55930;47.412;8.790;2022-11-20T02:47:43;94257.88;;;4.13;100.00
68889;BME280;55930;47.412;8.790;2022-11-20T02:51:04;94251.31;;;4.18;100.00
68889;BME280;55930;47.412;8.790;2022-11-20T02:54:28;94256.25;;;4.16;100.00
68889;BME280;55930;47.412;8.790;2022-11-20T02:57:48;94250.81;;;4.10;100.00
68889;BME280;55930;47.412;8.790;2022-11-20T03:01:11;94252.53;;;4.04;100.00
68889;BME280;55930;47.412;8.790;2022-11-20T03:04:31;94250.94;;;4.07;100.00
68889;BME280;55930;47.412;8.790;2022-11-20T03:07:55;94247.22;;;4.17;100.00
68889;BME280;55930;47.412;8.790;2022-11-20T03:11:15;94240.88;;;4.05;100.00
68889;BME280;55930;47.412;8.790;2022-11-20T03:14:35;94252.44;;;3.95;100.00
68889;BME280;55930;47.412;8.790;2022-11-20T03:18:00;94251.06;;;4.03;100.00
68889;BME280;55930;47.412;8.790;2022-11-20T03:21:26;94240.78;;;3.96;100.00
68889;BME280;55930;47.412;8.790;2022-11-20T03:24:49;94248.25;;;3.98;100.00
68889;BME280;55930;47.412;8.790;2022-11-20T03:28:09;94236.69;;;3.95;100.00
68889;BME280;55930;47.412;8.790;2022-11-20T03:31:32;94243.00;;;3.85;100.00
68889;BME280;55930;47.412;8.790;2022-11-20T03:34:53;94227.78;;;3.67;100.00
68889;BME280;55930;47.412;8.790;2022-11-20T03:38:13;94231.91;;;3.56;100.00
68889;BME280;55930;47.412;8.790;2022-11-20T03:41:39;94241.25;;;3.57;100.00
68889;BME280;55930;47.412;8.790;2022-11-20T03:45:00;94245.66;;;3.47;100.00
68889;BME280;55930;47.412;8.790;2022-11-20T03:48:20;94254.44;;;3.28;100.00
68889;BME280;55930;47.412;8.790;2022-11-20T03:51:40;94266.31;;;3.32;100.00
68889;BME280;55930;47.412;8.790;2022-11-20T03:55:01;94265.66;;;3.28;100.00
68889;BME280;55930;47.412;8.790;2022-11-20T03:58:21;94259.91;;;3.46;100.00
68889;BME280;55930;47.412;8.790;2022-11-20T04:01:41;94262.63;;;3.55;100.00
68889;BME280;55930;47.412;8.790;2022-11-20T04:05:02;94266.31;;;3.58;100.00
68889;BME280;55930;47.412;8.790;2022-11-20T04:08:22;94266.94;;;3.74;100.00
68889;BME280;55930;47.412;8.790;2022-11-20T04:11:43;94264.94;;;3.78;100.00
68889;BME280;55930;47.412;8.790;2022-11-20T04:15:03;94253.19;;;3.70;100.00
68889;BME280;55930;47.412;8.790;2022-11-20T04:18:24;94257.50;;;3.64;100.00
68889;BME280;55930;47.412;8.790;2022-11-20T04:21:47;94256.56;;;3.71;100.00
68889;BME280;55930;47.412;8.790;2022-11-20T04:25:08;94263.78;;;3.54;100.00
68889;BME280;55930;47.412;8.790;2022-11-20T04:28:28;94259.38;;;3.76;100.00
68889;BME280;55930;47.412;8.790;2022-11-20T04:31:48;94255.28;;;3.75;100.00
68889;BME280;55930;47.412;8.790;2022-11-20T04:35:09;94254.66;;;3.71;100.00
68889;BME280;55930;47.412;8.790;2022-11-20T04:38:29;94251.63;;;3.73;100.00
68889;BME280;55930;47.412;8.790;2022-11-20T04:41:50;94261.16;;;3.79;100.00
68889;BME280;55930;47.412;8.790;2022-11-20T04:45:30;94251.91;;;3.88;100.00
68889;BME280;55930;47.412;8.790;2022-11-20T04:48:50;94257.81;;;3.79;100.00
68889;BME280;55930;47.412;8.790;2022-11-20T04:52:11;94251.81;;;3.78;100.00
68889;BME280;55930;47.412;8.790;2022-11-20T04:55:31;94245.31;;;3.70;100.00
68889;BME280;55930;47.412;8.790;2022-11-20T04:58:51;94252.53;;;3.92;100.00
68889;BME280;55930;47.412;8.790;2022-11-20T05:02:12;94251.41;;;3.80;100.00
68889;BME280;55930;47.412;8.790;2022-11-20T05:05:36;94250.25;;;3.81;100.00
68889;BME280;55930;47.412;8.790;2022-11-20T05:08:56;94246.34;;;3.85;100.00
68889;BME280;55930;47.412;8.790;2022-11-20T05:12:17;94250.34;;;3.77;100.00
68889;BME280;55930;47.412;8.790;2022-11-20T05:15:37;94256.88;;;3.73;100.00
68889;BME280;55930;47.412;8.790;2022-11-20T05:18:57;94254.25;;;3.73;100.00
68889;BME280;55930;47.412;8.790;2022-11-20T05:22:20;94264.84;;;3.69;100.00
68889;BME280;55930;47.412;8.790;2022-11-20T05:25:40;94255.50;;;3.68;100.00
68889;BME280;55930;47.412;8.790;2022-11-20T05:29:03;94257.59;;;3.61;100.00
68889;BME280;55930;47.412;8.790;2022-11-20T05:32:24;94254.47;;;3.40;100.00
68889;BME280;55930;47.412;8.790;2022-11-20T05:35:45;94262.75;;;3.39;100.00
68889;BME280;55930;47.412;8.790;2022-11-20T05:39:08;94268.09;;;3.48;100.00
68889;BME280;55930;47.412;8.790;2022-11-20T05:42:30;94261.59;;;3.53;100.00
68889;BME280;55930;47.412;8.790;2022-11-20T05:45:51;94263.47;;;3.52;100.00
68889;BME280;55930;47.412;8.790;2022-11-20T05:49:14;94263.59;;;3.49;100.00
68889;BME280;55930;47.412;8.790;2022-11-20T05:52:34;94269.66;;;3.45;100.00
68889;BME280;55930;47.412;8.790;2022-11-20T05:56:00;94270.41;;;3.46;100.00
68889;BME280;55930;47.412;8.790;2022-11-20T05:59:20;94274.41;;;3.51;100.00
68889;BME280;55930;47.412;8.790;2022-11-20T06:02:41;94272.19;;;3.49;100.00
68889;BME280;55930;47.412;8.790;2022-11-20T06:06:02;94275.31;;;3.31;100.00
68889;BME280;55930;47.412;8.790;2022-11-20T06:09:24;94275.00;;;3.29;100.00
68889;BME280;55930;47.412;8.790;2022-11-20T06:12:44;94275.41;;;3.28;100.00
68889;BME280;55930;47.412;8.790;2022-11-20T06:16:05;94276.06;;;3.44;100.00
68889;BME280;55930;47.412;8.790;2022-11-20T06:19:28;94277.09;;;3.60;100.00
68889;BME280;55930;47.412;8.790;2022-11-20T06:22:48;94275.88;;;3.64;100.00
68889;BME280;55930;47.412;8.790;2022-11-20T06:26:11;94283.59;;;3.68;100.00
68889;BME280;55930;47.412;8.790;2022-11-20T06:29:31;94280.56;;;3.69;100.00
68889;BME280;55930;47.412;8.790;2022-11-20T06:32:52;94277.22;;;3.69;100.00
68889;BME280;55930;47.412;8.790;2022-11-20T06:36:14;94281.19;;;3.86;100.00
68889;BME280;55930;47.412;8.790;2022-11-20T06:39:34;94279.94;;;3.78;100.00
68889;BME280;55930;47.412;8.790;2022-11-20T06:42:55;94282.06;;;3.83;100.00
68889;BME280;55930;47.412;8.790;2022-11-20T06:46:19;94290.22;;;3.85;100.00
68889;BME280;55930;47.412;8.790;2022-11-20T06:49:39;94289.47;;;3.84;100.00
68889;BME280;55930;47.412;8.790;2022-11-20T06:53:03;94294.31;;;3.86;100.00
68889;BME280;55930;47.412;8.790;2022-11-20T06:56:24;94306.59;;;3.89;100.00
68889;BME280;55930;47.412;8.790;2022-11-20T06:59:44;94304.81;;;3.86;100.00
68889;BME280;55930;47.412;8.790;2022-11-20T07:03:06;94304.06;;;3.85;100.00
68889;BME280;55930;47.412;8.790;2022-11-20T07:06:27;94305.75;;;3.79;100.00
68889;BME280;55930;47.412;8.790;2022-11-20T07:09:50;94310.38;;;3.88;100.00
68889;BME280;55930;47.412;8.790;2022-11-20T07:13:10;94316.56;;;3.94;100.00
68889;BME280;55930;47.412;8.790;2022-11-20T07:16:33;94318.00;;;4.08;100.00
68889;BME280;55930;47.412;8.790;2022-11-20T07:19:53;94319.81;;;4.11;100.00
68889;BME280;55930;47.412;8.790;2022-11-20T07:23:13;94327.34;;;4.21;100.00
68889;BME280;55930;47.412;8.790;2022-11-20T07:26:34;94327.13;;;4.16;100.00
68889;BME280;55930;47.412;8.790;2022-11-20T07:29:54;94333.13;;;4.16;100.00
68889;BME280;55930;47.412;8.790;2022-11-20T07:33:15;94330.63;;;4.13;100.00
68889;BME280;55930;47.412;8.790;2022-11-20T07:36:35;94344.50;;;4.48;100.00
68889;BME280;55930;47.412;8.790;2022-11-20T07:39:56;94341.38;;;4.53;100.00
68889;BME280;55930;47.412;8.790;2022-11-20T07:43:16;94341.59;;;4.46;100.00
68889;BME280;55930;47.412;8.790;2022-11-20T07:46:39;94335.56;;;4.58;100.00
68889;BME280;55930;47.412;8.790;2022-11-20T07:49:59;94335.09;;;4.38;100.00
68889;BME280;55930;47.412;8.790;2022-11-20T07:53:22;94334.50;;;4.68;100.00
68889;BME280;55930;47.412;8.790;2022-11-20T07:56:42;94330.09;;;4.65;100.00
68889;BME280;55930;47.412;8.790;2022-11-20T08:00:04;94335.09;;;4.72;100.00
68889;BME280;55930;47.412;8.790;2022-11-20T08:03:25;94327.78;;;4.89;100.00
68889;BME280;55930;47.412;8.790;2022-11-20T08:06:45;94326.31;;;4.88;100.00
68889;BME280;55930;47.412;8.790;2022-11-20T08:10:07;94336.97;;;4.84;100.00
68889;BME280;55930;47.412;8.790;2022-11-20T08:13:28;94337.50;;;4.79;100.00
68889;BME280;55930;47.412;8.790;2022-11-20T08:17:07;94338.97;;;4.80;100.00
68889;BME280;55930;47.412;8.790;2022-11-20T08:20:27;94346.72;;;5.18;100.00
68889;BME280;55930;47.412;8.790;2022-11-20T08:23:48;94351.72;;;5.25;100.00
68889;BME280;55930;47.412;8.790;2022-11-20T08:27:12;94355.81;;;5.05;100.00
68889;BME280;55930;47.412;8.790;2022-11-20T08:30:33;94355.28;;;5.10;100.00
68889;BME280;55930;47.412;8.790;2022-11-20T08:33:54;94356.75;;;5.11;100.00
68889;BME280;55930;47.412;8.790;2022-11-20T08:37:16;94355.44;;;5.15;100.00
68889;BME280;55930;47.412;8.790;2022-11-20T08:40:37;94355.19;;;5.22;98.91
68889;BME280;55930;47.412;8.790;2022-11-20T08:43:59;94355.56;;;5.55;97.49
68889;BME280;55930;47.412;8.790;2022-11-20T08:47:22;94357.47;;;6.17;93.31
68889;BME280;55930;47.412;8.790;2022-11-20T08:50:44;94355.38;;;6.51;89.52
68889;BME280;55930;47.412;8.790;2022-11-20T08:54:04;94353.50;;;6.98;86.81
68889;BME280;55930;47.412;8.790;2022-11-20T08:57:25;94350.25;;;6.08;90.01
68889;BME280;55930;47.412;8.790;2022-11-20T09:00:45;94355.94;;;6.56;89.60
68889;BME280;55930;47.412;8.790;2022-11-20T09:04:05;94362.41;;;6.05;90.56
68889;BME280;55930;47.412;8.790;2022-11-20T09:07:29;94362.63;;;5.89;91.24
68889;BME280;55930;47.412;8.790;2022-11-20T09:10:52;94361.81;;;5.80;91.46
68889;BME280;55930;47.412;8.790;2022-11-20T09:14:13;94361.94;;;5.98;92.46
68889;BME280;55930;47.412;8.790;2022-11-20T09:17:35;94362.53;;;6.02;91.90
68889;BME280;55930;47.412;8.790;2022-11-20T09:21:02;94358.22;;;6.26;90.28
68889;BME280;55930;47.412;8.790;2022-11-20T09:24:26;94353.19;;;6.68;86.96
68889;BME280;55930;47.412;8.790;2022-11-20T09:27:46;94359.09;;;9.54;77.25
68889;BME280;55930;47.412;8.790;2022-11-20T09:31:08;94358.16;;;8.89;76.87
68889;BME280;55930;47.412;8.790;2022-11-20T09:34:29;94357.94;;;8.54;78.67
68889;BME280;55930;47.412;8.790;2022-11-20T09:37:49;94361.44;;;8.36;80.32
68889;BME280;55930;47.412;8.790;2022-11-20T09:48:25;94362.16;;;7.07;85.38
68889;BME280;55930;47.412;8.790;2022-11-20T09:51:57;94362.16;;;7.16;84.68
68889;BME280;55930;47.412;8.790;2022-11-20T09:55:18;94362.00;;;7.02;83.28
68889;BME280;55930;47.412;8.790;2022-11-20T09:59:04;94359.34;;;6.65;84.20
68889;BME280;55930;47.412;8.790;2022-11-20T10:02:40;94356.69;;;6.56;85.66
68889;BME280;55930;47.412;8.790;2022-11-20T10:06:07;94358.56;;;6.56;85.68
68889;BME280;55930;47.412;8.790;2022-11-20T10:09:35;94355.72;;;6.23;86.30
68889;BME280;55930;47.412;8.790;2022-11-20T10:20:24;94348.66;;;6.87;83.99
68889;BME280;55930;47.412;8.790;2022-11-20T10:28:22;94350.34;;;8.71;72.58
68889;BME280;55930;47.412;8.790;2022-11-20T10:31:56;94350.06;;;10.40;66.27
68889;BME280;55930;47.412;8.790;2022-11-20T10:35:40;94354.47;;;15.26;50.94
68889;BME280;55930;47.412;8.790;2022-11-20T10:39:14;94350.38;;;11.74;57.55
68889;BME280;55930;47.412;8.790;2022-11-20T10:42:45;94352.16;;;9.03;68.01
68889;BME280;55930;47.412;8.790;2022-11-20T10:46:15;94350.28;;;8.32;74.03
68889;BME280;55930;47.412;8.790;2022-11-20T10:49:37;94342.59;;;8.43;72.60
68889;BME280;55930;47.412;8.790;2022-11-20T11:00:09;94340.81;;;8.07;75.39
68889;BME280;55930;47.412;8.790;2022-11-20T11:03:31;94336.31;;;7.48;79.22
68889;BME280;55930;47.412;8.790;2022-11-20T11:06:55;94333.47;;;7.69;76.54
68889;BME280;55930;47.412;8.790;2022-11-20T11:10:21;94335.59;;;7.47;76.92
68889;BME280;55930;47.412;8.790;2022-11-20T11:13:44;94327.13;;;7.07;79.23
68889;BME280;55930;47.412;8.790;2022-11-20T11:17:04;94321.97;;;7.40;77.37
68889;BME280;55930;47.412;8.790;2022-11-20T11:20:28;94307.88;;;8.51;72.25
68889;BME280;55930;47.412;8.790;2022-11-20T11:23:58;94306.50;;;8.79;72.17
68889;BME280;55930;47.412;8.790;2022-11-20T11:27:19;94303.91;;;8.22;73.81
68889;BME280;55930;47.412;8.790;2022-11-20T11:30:42;94297.91;;;7.89;75.71
68889;BME280;55930;47.412;8.790;2022-11-20T11:34:07;94294.53;;;7.88;75.95
68889;BME280;55930;47.412;8.790;2022-11-20T11:37:34;94290.38;;;7.63;75.35
68889;BME280;55930;47.412;8.790;2022-11-20T11:40:56;94287.50;;;8.18;73.89
68889;BME280;55930;47.412;8.790;2022-11-20T11:44:20;94291.06;;;9.45;69.71
68889;BME280;55930;47.412;8.790;2022-11-20T11:48:02;94284.13;;;8.65;71.41
68889;BME280;55930;47.412;8.790;2022-11-20T11:51:26;94281.09;;;9.11;68.25
68889;BME280;55930;47.412;8.790;2022-11-20T11:54:53;94273.16;;;8.58;69.66
68889;BME280;55930;47.412;8.790;2022-11-20T11:58:20;94268.84;;;10.22;64.37
68889;BME280;55930;47.412;8.790;2022-11-20T12:01:55;94265.63;;;9.33;64.63
68889;BME280;55930;47.412;8.790;2022-11-20T12:05:18;94262.53;;;12.91;58.33
68889;BME280;55930;47.412;8.790;2022-11-20T12:12:25;94256.91;;;9.62;62.94
68889;BME280;55930;47.412;8.790;2022-11-20T12:15:47;94254.19;;;9.42;64.77
68889;BME280;55930;47.412;8.790;2022-11-20T12:19:13;94243.47;;;8.39;67.99
68889;BME280;55930;47.412;8.790;2022-11-20T12:22:58;94241.19;;;8.32;69.19
68889;BME280;55930;47.412;8.790;2022-11-20T12:30:21;94242.06;;;9.06;67.65
68889;BME280;55930;47.412;8.790;2022-11-20T12:41:23;94222.34;;;10.21;61.20
68889;BME280;55930;47.412;8.790;2022-11-20T12:45:32;94229.38;;;9.39;67.37
68889;BME280;55930;47.412;8.790;2022-11-20T13:03:43;94196.38;;;11.60;57.11
68889;BME280;55930;47.412;8.790;2022-11-20T13:07:10;94193.16;;;10.01;61.26
68889;BME280;55930;47.412;8.790;2022-11-20T13:15:00;94190.97;;;9.00;64.34
68889;BME280;55930;47.412;8.790;2022-11-20T13:18:25;94180.69;;;9.02;64.56
68889;BME280;55930;47.412;8.790;2022-11-20T13:21:48;94178.94;;;11.53;56.28
68889;BME280;55930;47.412;8.790;2022-11-20T13:25:22;94176.34;;;10.96;53.57
68889;BME280;55930;47.412;8.790;2022-11-20T13:28:42;94176.47;;;9.25;62.89
68889;BME280;55930;47.412;8.790;2022-11-20T13:35:40;94181.31;;;7.57;67.69
68889;BME280;55930;47.412;8.790;2022-11-20T13:39:01;94178.66;;;7.57;70.22
68889;BME280;55930;47.412;8.790;2022-11-20T13:42:27;94173.31;;;7.90;68.85
68889;BME280;55930;47.412;8.790;2022-11-20T13:45:56;94164.94;;;8.16;67.07
68889;BME280;55930;47.412;8.790;2022-11-20T14:03:38;94147.75;;;22.99;30.40
68889;BME280;55930;47.412;8.790;2022-11-20T14:06:59;94147.28;;;23.18;29.33
68889;BME280;55930;47.412;8.790;2022-11-20T14:20:43;94119.72;;;23.37;27.94
68889;BME280;55930;47.412;8.790;2022-11-20T14:24:10;94113.19;;;21.11;30.64
68889;BME280;55930;47.412;8.790;2022-11-20T14:27:41;94111.44;;;12.36;46.48
68889;BME280;55930;47.412;8.790;2022-11-20T14:31:02;94110.84;;;10.10;56.88
68889;BME280;55930;47.412;8.790;2022-11-20T14:34:28;94120.19;;;8.65;61.35
68889;BME280;55930;47.412;8.790;2022-11-20T14:37:51;94112.25;;;8.95;61.28
68889;BME280;55930;47.412;8.790;2022-11-20T14:41:24;94118.28;;;8.66;62.68
68889;BME280;55930;47.412;8.790;2022-11-20T14:44:45;94117.53;;;7.97;65.19
68889;BME280;55930;47.412;8.790;2022-11-20T14:48:14;94110.28;;;7.36;66.88
68889;BME280;55930;47.412;8.790;2022-11-20T14:51:37;94118.84;;;7.54;68.20
68889;BME280;55930;47.412;8.790;2022-11-20T14:55:13;94110.03;;;7.34;71.30
68889;BME280;55930;47.412;8.790;2022-11-20T14:58:55;94113.25;;;7.28;69.82
68889;BME280;55930;47.412;8.790;2022-11-20T15:02:16;94108.34;;;7.45;67.98
68889;BME280;55930;47.412;8.790;2022-11-20T15:05:47;94101.81;;;6.99;72.93
68889;BME280;55930;47.412;8.790;2022-11-20T15:09:14;94098.28;;;6.69;78.61
68889;BME280;55930;47.412;8.790;2022-11-20T15:12:50;94104.19;;;6.36;81.37
68889;BME280;55930;47.412;8.790;2022-11-20T15:16:20;94098.38;;;6.14;83.34
68889;BME280;55930;47.412;8.790;2022-11-20T15:19:40;94100.84;;;5.81;86.57
68889;BME280;55930;47.412;8.790;2022-11-20T15:23:01;94091.59;;;5.67;87.75
68889;BME280;55930;47.412;8.790;2022-11-20T15:26:27;94090.50;;;5.19;90.78
68889;BME280;55930;47.412;8.790;2022-11-20T15:29:54;94080.28;;;5.21;90.81
68889;BME280;55930;47.412;8.790;2022-11-20T15:33:16;94069.31;;;5.14;90.13
68889;BME280;55930;47.412;8.790;2022-11-20T15:36:36;94064.00;;;4.86;94.07
68889;BME280;55930;47.412;8.790;2022-11-20T15:39:57;94068.66;;;4.91;92.06
68889;BME280;55930;47.412;8.790;2022-11-20T15:43:17;94056.25;;;4.92;91.84
68889;BME280;55930;47.412;8.790;2022-11-20T15:46:41;94059.59;;;4.83;92.96
68889;BME280;55930;47.412;8.790;2022-11-20T15:50:02;94054.69;;;4.63;95.25
68889;BME280;55930;47.412;8.790;2022-11-20T15:53:23;94047.25;;;4.62;95.39
68889;BME280;55930;47.412;8.790;2022-11-20T15:56:43;94044.75;;;4.58;96.56
68889;BME280;55930;47.412;8.790;2022-11-20T16:00:04;94043.19;;;4.70;92.90
68889;BME280;55930;47.412;8.790;2022-11-20T16:03:28;94048.34;;;4.83;90.35
68889;BME280;55930;47.412;8.790;2022-11-20T16:06:48;94054.03;;;4.81;91.30
68889;BME280;55930;47.412;8.790;2022-11-20T16:10:09;94053.00;;;4.79;89.50
68889;BME280;55930;47.412;8.790;2022-11-20T16:13:31;94047.56;;;4.73;90.45
68889;BME280;55930;47.412;8.790;2022-11-20T16:17:12;94040.09;;;4.63;91.80
68889;BME280;55930;47.412;8.790;2022-11-20T16:20:33;94035.56;;;4.63;90.84
68889;BME280;55930;47.412;8.790;2022-11-20T16:23:58;94040.34;;;4.46;92.51
68889;BME280;55930;47.412;8.790;2022-11-20T16:27:19;94036.25;;;4.45;94.40
68889;BME280;55930;47.412;8.790;2022-11-20T16:30:40;94032.44;;;4.46;94.18
68889;BME280;55930;47.412;8.790;2022-11-20T16:34:05;94042.47;;;4.39;95.22
68889;BME280;55930;47.412;8.790;2022-11-20T16:37:26;94042.22;;;4.46;92.82
68889;BME280;55930;47.412;8.790;2022-11-20T16:40:47;94047.63;;;4.51;90.98
68889;BME280;55930;47.412;8.790;2022-11-20T16:44:09;94051.56;;;4.47;92.61
68889;BME280;55930;47.412;8.790;2022-11-20T16:47:34;94038.13;;;4.45;90.86
68889;BME280;55930;47.412;8.790;2022-11-20T16:50:57;94046.22;;;4.29;92.46
68889;BME280;55930;47.412;8.790;2022-11-20T16:54:17;94031.31;;;4.26;92.84
68889;BME280;55930;47.412;8.790;2022-11-20T16:57:37;94021.72;;;4.32;92.67
68889;BME280;55930;47.412;8.790;2022-11-20T17:01:10;94019.34;;;4.24;93.53
68889;BME280;55930;47.412;8.790;2022-11-20T17:04:33;94031.00;;;4.23;93.46
68889;BME280;55930;47.412;8.790;2022-11-20T17:07:54;94014.75;;;4.38;92.23
68889;BME280;55930;47.412;8.790;2022-11-20T17:11:17;94036.94;;;4.37;92.20
68889;BME280;55930;47.412;8.790;2022-11-20T17:14:37;94037.09;;;4.42;91.63
68889;BME280;55930;47.412;8.790;2022-11-20T17:17:58;94022.03;;;4.34;91.57
68889;BME280;55930;47.412;8.790;2022-11-20T17:21:19;94040.03;;;4.44;92.03
68889;BME280;55930;47.412;8.790;2022-11-20T17:24:40;94023.28;;;4.51;90.13
68889;BME280;55930;47.412;8.790;2022-11-20T17:28:05;94025.47;;;4.52;89.75
68889;BME280;55930;47.412;8.790;2022-11-20T17:31:27;94022.50;;;4.41;89.78
68889;BME280;55930;47.412;8.790;2022-11-20T17:34:49;94015.72;;;4.31;91.11
68889;BME280;55930;47.412;8.790;2022-11-20T17:38:10;94023.97;;;4.11;91.48
68889;BME280;55930;47.412;8.790;2022-11-20T17:41:30;94028.53;;;4.20;91.60
68889;BME280;55930;47.412;8.790;2022-11-20T17:44:51;94031.25;;;4.38;89.38
68889;BME280;55930;47.412;8.790;2022-11-20T17:48:11;94036.63;;;4.35;89.18
68889;BME280;55930;47.412;8.790;2022-11-20T17:51:34;94027.88;;;4.38;90.09
68889;BME280;55930;47.412;8.790;2022-11-20T17:54:55;94029.44;;;4.26;89.90
68889;BME280;55930;47.412;8.790;2022-11-20T17:58:16;94026.50;;;4.24;92.23
68889;BME280;55930;47.412;8.790;2022-11-20T18:01:37;94024.53;;;4.37;90.86
68889;BME280;55930;47.412;8.790;2022-11-20T18:04:58;94022.75;;;4.34;89.79
68889;BME280;55930;47.412;8.790;2022-11-20T18:08:18;94021.16;;;4.37;89.77
68889;BME280;55930;47.412;8.790;2022-11-20T18:11:40;94019.13;;;4.41;89.13
68889;BME280;55930;47.412;8.790;2022-11-20T18:15:04;94018.91;;;4.57;89.65
68889;BME280;55930;47.412;8.790;2022-11-20T18:18:24;94031.31;;;4.56;89.85
68889;BME280;55930;47.412;8.790;2022-11-20T18:21:45;94023.84;;;4.55;89.66
68889;BME280;55930;47.412;8.790;2022-11-20T18:25:08;94018.47;;;4.58;90.16
68889;BME280;55930;47.412;8.790;2022-11-20T18:28:28;94020.25;;;4.61;90.05
68889;BME280;55930;47.412;8.790;2022-11-20T18:31:52;94019.28;;;4.77;90.18
68889;BME280;55930;47.412;8.790;2022-11-20T18:35:13;94015.88;;;4.68;90.98
68889;BME280;55930;47.412;8.790;2022-11-20T18:38:33;94020.28;;;4.71;91.77
68889;BME280;55930;47.412;8.790;2022-11-20T18:41:53;94024.22;;;4.75;91.62
68889;BME280;55930;47.412;8.790;2022-11-20T18:45:32;94024.22;;;4.75;92.95
68889;BME280;55930;47.412;8.790;2022-11-20T18:48:53;94015.03;;;4.71;92.56
68889;BME280;55930;47.412;8.790;2022-11-20T18:52:13;94009.47;;;4.69;92.56
68889;BME280;55930;47.412;8.790;2022-11-20T18:55:34;94008.16;;;4.73;92.74
68889;BME280;55930;47.412;8.790;2022-11-20T18:58:55;94016.06;;;4.82;90.84
68889;BME280;55930;47.412;8.790;2022-11-20T19:02:19;94011.28;;;4.90;90.60
68889;BME280;55930;47.412;8.790;2022-11-20T19:05:42;94016.81;;;4.83;90.02
68889;BME280;55930;47.412;8.790;2022-11-20T19:09:07;94019.50;;;5.01;87.92
68889;BME280;55930;47.412;8.790;2022-11-20T19:12:33;94022.88;;;5.11;85.09
68889;BME280;55930;47.412;8.790;2022-11-20T19:15:53;94042.72;;;5.12;82.04
68889;BME280;55930;47.412;8.790;2022-11-20T19:19:14;94039.91;;;4.97;82.79
68889;BME280;55930;47.412;8.790;2022-11-20T19:22:34;94073.41;;;4.75;87.16
68889;BME280;55930;47.412;8.790;2022-11-20T19:25:58;94066.34;;;4.32;91.17
68889;BME280;55930;47.412;8.790;2022-11-20T19:29:18;94043.22;;;4.17;96.02
68889;BME280;55930;47.412;8.790;2022-11-20T19:32:39;94044.09;;;4.14;96.07